Time;durP1;ratioP1;P1;durP2;ratioP2;P2;SDS_P1;SDS_P2;PMS_P1;PMS_P2;Temp;Humidity;BMP_temperature;BMP_pressure;BME280_temperature;BME280_humidity;BME280_pressure;Samples;Min_cycle;Max_cycle;Signal;HPM_P1;HPM_P2
2022/05/15 00:01:22;;;;;;;20.95;5.93;;;;;;;10.98;100.00;102267.03;4995697;28;20392;-79
2022/05/15 00:03:50;;;;;;;20.75;6.45;;;;;;;10.93;100.00;102265.19;4989564;28;20053;-80
2022/05/15 00:06:19;;;;;;;21.40;6.30;;;;;;;10.90;100.00;102256.28;4989964;28;20038;-79
2022/05/15 00:08:50;;;;;;;22.02;6.07;;;;;;;10.87;100.00;102258.88;4987644;28;20523;-79
2022/05/15 00:11:19;;;;;;;24.83;6.80;;;;;;;10.84;100.00;102258.78;4960415;28;20059;-79
2022/05/15 00:13:48;;;;;;;20.30;6.00;;;;;;;10.80;100.00;102259.56;4990761;28;20049;-79
2022/05/15 00:16:17;;;;;;;27.10;7.18;;;;;;;10.77;100.00;102263.00;4989718;28;20363;-79
2022/05/15 00:18:46;;;;;;;20.13;6.45;;;;;;;10.73;100.00;102259.41;4983749;28;20043;-79
2022/05/15 00:21:15;;;;;;;28.25;6.93;;;;;;;10.69;100.00;102248.75;5007008;28;20407;-80
2022/05/15 00:23:44;;;;;;;26.27;7.90;;;;;;;10.67;100.00;102255.72;4973841;28;20034;-79
2022/05/15 00:26:13;;;;;;;25.52;8.77;;;;;;;10.64;100.00;102263.56;5000040;28;20495;-80
2022/05/15 00:28:43;;;;;;;26.58;8.80;;;;;;;10.61;100.00;102260.84;4983892;28;20046;-79
2022/05/15 00:31:12;;;;;;;20.83;7.55;;;;;;;10.58;100.00;102255.50;4979288;28;20037;-79
2022/05/15 00:33:43;;;;;;;22.55;7.93;;;;;;;10.53;100.00;102253.63;4989309;28;20057;-79
2022/05/15 00:36:12;;;;;;;25.00;6.90;;;;;;;10.49;100.00;102254.41;5002530;28;20042;-79
2022/05/15 00:38:40;;;;;;;22.63;7.40;;;;;;;10.48;100.00;102262.28;4972532;28;20034;-80
2022/05/15 00:41:10;;;;;;;29.27;8.35;;;;;;;10.45;100.00;102259.53;4994596;28;20038;-79
2022/05/15 00:43:51;;;;;;;26.63;7.60;;;;;;;10.40;100.00;102255.91;4977061;28;20050;-79
2022/05/15 00:46:21;;;;;;;23.05;6.85;;;;;;;10.38;100.00;102261.16;5002244;28;20050;-80
2022/05/15 00:48:51;;;;;;;28.55;8.55;;;;;;;10.37;100.00;102263.72;4983506;28;20039;-81
2022/05/15 00:51:31;;;;;;;31.83;7.78;;;;;;;10.34;100.00;102262.81;5008195;28;20054;-78
2022/05/15 00:54:10;;;;;;;23.52;7.03;;;;;;;10.32;100.00;102258.31;5025016;28;20053;-79
2022/05/15 00:56:43;;;;;;;20.55;6.95;;;;;;;10.29;100.00;102260.88;5004558;28;20053;-80
2022/05/15 00:59:15;;;;;;;25.98;7.63;;;;;;;10.25;100.00;102267.78;4992859;28;20130;-78
2022/05/15 01:01:44;;;;;;;22.33;7.60;;;;;;;10.22;100.00;102266.81;4995770;28;20030;-79
2022/05/15 01:04:13;;;;;;;25.38;7.50;;;;;;;10.19;100.00;102259.72;4994703;28;20061;-78
2022/05/15 01:06:44;;;;;;;25.70;6.35;;;;;;;10.18;100.00;102257.03;4984741;28;20423;-80
2022/05/15 01:09:15;;;;;;;23.88;6.72;;;;;;;10.15;100.00;102260.47;4990763;28;20042;-78
2022/05/15 01:11:47;;;;;;;24.95;7.28;;;;;;;10.13;100.00;102263.09;4994672;28;20042;-79
2022/05/15 01:14:18;;;;;;;24.42;7.95;;;;;;;10.10;100.00;102263.00;4977823;28;20042;-78
2022/05/15 01:16:47;;;;;;;31.55;7.70;;;;;;;10.08;100.00;102264.69;4995739;28;20058;-79
2022/05/15 01:19:27;;;;;;;25.80;6.40;;;;;;;10.06;100.00;102260.25;4986653;28;20061;-78
2022/05/15 01:21:58;;;;;;;27.67;7.30;;;;;;;10.02;100.00;102260.97;4995251;28;20255;-78
2022/05/15 01:24:28;;;;;;;24.73;6.80;;;;;;;9.97;100.00;102263.50;4979455;28;20054;-78
2022/05/15 01:27:01;;;;;;;22.67;6.10;;;;;;;9.94;100.00;102248.50;4998812;28;20042;-79
2022/05/15 01:29:32;;;;;;;24.80;6.22;;;;;;;9.91;100.00;102248.41;4985739;28;20513;-79
2022/05/15 01:32:02;;;;;;;19.10;6.18;;;;;;;9.88;100.00;102255.34;4986880;28;20427;-79
2022/05/15 01:34:31;;;;;;;22.88;6.40;;;;;;;9.85;100.00;102249.97;5003171;28;20035;-79
2022/05/15 01:37:02;;;;;;;20.92;6.38;;;;;;;9.82;100.00;102249.91;4989629;28;20527;-79
2022/05/15 01:39:31;;;;;;;20.47;6.60;;;;;;;9.78;100.00;102248.03;4988650;28;20051;-79
2022/05/15 01:42:01;;;;;;;17.77;6.28;;;;;;;9.75;100.00;102251.44;4955458;28;20515;-79
2022/05/15 01:44:31;;;;;;;25.90;7.20;;;;;;;9.72;100.00;102249.63;4986922;28;20495;-80
2022/05/15 01:47:00;;;;;;;18.90;6.30;;;;;;;9.70;100.00;102248.69;4987017;28;20046;-80
2022/05/15 01:49:29;;;;;;;19.80;5.80;;;;;;;9.70;100.00;102251.31;4997358;28;20034;-78
2022/05/15 01:51:58;;;;;;;18.85;6.32;;;;;;;9.70;100.00;102250.44;4985756;28;20088;-78
2022/05/15 01:54:26;;;;;;;19.20;6.35;;;;;;;9.70;100.00;102239.91;4986717;28;20038;-78
2022/05/15 01:56:55;;;;;;;17.15;6.30;;;;;;;9.69;100.00;102244.25;4954710;28;20073;-79
2022/05/15 01:59:24;;;;;;;23.10;6.70;;;;;;;9.67;100.00;102239.81;4984231;28;20045;-79
2022/05/15 02:01:52;;;;;;;21.27;6.88;;;;;;;9.66;100.00;102241.56;4976515;28;20279;-79
2022/05/15 02:04:21;;;;;;;22.75;6.70;;;;;;;9.65;100.00;102239.75;5005166;28;20056;-79
2022/05/15 02:06:49;;;;;;;25.88;7.13;;;;;;;9.62;100.00;102246.66;5000637;28;20515;-79
2022/05/15 02:09:18;;;;;;;24.45;6.60;;;;;;;9.60;100.00;102254.50;4990917;28;20053;-79
2022/05/15 02:11:46;;;;;;;25.65;7.25;;;;;;;9.58;100.00;102253.59;5006160;28;20049;-79
2022/05/15 02:14:15;;;;;;;25.00;6.93;;;;;;;9.56;100.00;102258.81;4988935;28;20042;-79
2022/05/15 02:16:44;;;;;;;25.65;7.07;;;;;;;9.56;100.00;102252.66;4977195;28;20050;-79
2022/05/15 02:19:13;;;;;;;23.52;6.57;;;;;;;9.55;100.00;102249.13;4986421;28;20057;-79
2022/05/15 02:21:41;;;;;;;20.83;7.07;;;;;;;9.53;100.00;102244.69;4986798;28;20050;-79
2022/05/15 02:24:10;;;;;;;26.90;7.25;;;;;;;9.53;100.00;102252.56;5008941;28;20038;-79
2022/05/15 02:26:40;;;;;;;21.75;6.03;;;;;;;9.51;100.00;102249.00;4983157;28;20058;-79
2022/05/15 02:29:09;;;;;;;23.70;6.03;;;;;;;9.49;100.00;102250.66;4972948;28;20058;-79
2022/05/15 02:31:38;;;;;;;23.02;6.65;;;;;;;9.48;100.00;102259.44;4960979;28;20062;-79
2022/05/15 02:34:07;;;;;;;17.50;6.88;;;;;;;9.46;100.00;102256.75;4989127;28;20171;-78
2022/05/15 02:36:38;;;;;;;24.48;7.47;;;;;;;9.45;100.00;102254.97;5004028;28;20049;-78
2022/05/15 02:39:06;;;;;;;24.52;6.82;;;;;;;9.45;100.00;102264.59;5000278;28;20342;-78
2022/05/15 02:41:35;;;;;;;22.27;7.13;;;;;;;9.44;100.00;102265.44;4990750;28;20038;-78
2022/05/15 02:44:05;;;;;;;20.50;7.17;;;;;;;9.42;100.00;102259.25;4972440;28;20523;-78
2022/05/15 02:46:33;;;;;;;17.40;6.72;;;;;;;9.40;100.00;102272.34;4956356;28;20412;-78
2022/05/15 02:51:50;;;;;;;23.92;7.65;;;;;;;9.40;100.00;102272.34;4975430;28;20275;-78
2022/05/15 02:54:20;;;;;;;18.87;7.40;;;;;;;9.38;100.00;102270.53;4985482;28;20404;-78
2022/05/15 02:56:49;;;;;;;22.27;7.40;;;;;;;9.37;100.00;102264.34;5015353;28;20990;-79
2022/05/15 02:59:17;;;;;;;25.83;7.53;;;;;;;9.36;100.00;102268.72;5003249;28;20043;-79
2022/05/15 03:01:46;;;;;;;23.50;7.30;;;;;;;9.34;100.00;102277.44;5004650;28;20053;-79
2022/05/15 03:04:14;;;;;;;24.75;7.55;;;;;;;9.31;100.00;102270.31;4982487;28;20042;-78
2022/05/15 03:06:42;;;;;;;27.85;7.70;;;;;;;9.31;100.00;102272.94;4981838;28;20047;-78
2022/05/15 03:09:11;;;;;;;22.98;7.75;;;;;;;9.28;100.00;102262.34;4999466;28;20479;-78
2022/05/15 03:11:40;;;;;;;24.25;7.05;;;;;;;9.27;100.00;102264.94;4983781;28;20053;-78
2022/05/15 03:14:09;;;;;;;23.05;7.03;;;;;;;9.25;100.00;102272.75;4991872;28;20499;-78
2022/05/15 03:16:37;;;;;;;19.02;6.55;;;;;;;9.24;100.00;102270.97;4985118;28;20050;-79
2022/05/15 03:19:07;;;;;;;24.10;7.63;;;;;;;9.21;100.00;102276.16;4977920;28;20361;-79
2022/05/15 03:21:35;;;;;;;24.42;6.78;;;;;;;9.19;100.00;102275.22;5000629;28;20042;-79
2022/05/15 03:24:07;;;;;;;18.67;6.60;;;;;;;9.18;100.00;102276.03;4992544;28;20061;-79
2022/05/15 03:26:47;;;;;;;13.63;5.97;;;;;;;9.16;100.00;102272.47;5015433;28;20060;-78
2022/05/15 03:29:18;;;;;;;23.60;6.22;;;;;;;9.14;100.00;102274.16;5027050;28;20048;-78
2022/05/15 03:31:46;;;;;;;;;;;;;;;9.12;100.00;102276.75;5025208;28;20041;-79
2022/05/15 03:34:16;;;;;;;16.13;6.07;;;;;;;9.11;100.00;102276.69;5025350;28;19936;-79
2022/05/15 03:36:48;;;;;;;21.10;6.50;;;;;;;9.07;100.00;102269.53;4956888;28;20051;-80
2022/05/15 03:39:19;;;;;;;24.45;6.63;;;;;;;9.04;100.00;102270.34;4986535;28;20282;-79
2022/05/15 03:41:49;;;;;;;20.05;6.88;;;;;;;9.03;100.00;102272.94;4980664;28;20488;-80
2022/05/15 03:44:19;;;;;;;17.73;7.20;;;;;;;9.04;100.00;102272.09;4980565;28;20522;-79
2022/05/15 03:46:47;;;;;;;20.80;6.38;;;;;;;9.03;100.00;102270.28;4997164;28;20046;-80
2022/05/15 03:49:16;;;;;;;25.70;7.88;;;;;;;9.02;100.00;102271.13;4992297;28;20506;-80
2022/05/15 03:51:44;;;;;;;20.85;7.50;;;;;;;9.03;100.00;102280.81;4983372;28;20038;-78
2022/05/15 03:54:14;;;;;;;22.35;6.95;;;;;;;9.03;100.00;102268.56;4990955;28;20443;-78
2022/05/15 03:56:52;;;;;;;22.63;6.45;;;;;;;9.07;100.00;102274.81;4978524;28;20053;-78
2022/05/15 03:59:36;;;;;;;21.98;7.13;;;;;;;9.07;100.00;102270.44;4988579;28;20047;-79
2022/05/15 04:02:07;;;;;;;25.48;7.75;;;;;;;9.07;100.00;102273.06;4966245;28;20073;-80
2022/05/15 04:04:36;;;;;;;24.10;7.68;;;;;;;9.08;100.00;102274.84;4986793;28;20042;-79
2022/05/15 04:07:12;;;;;;;17.88;7.03;;;;;;;9.08;100.00;102280.13;4976593;28;20039;-78
2022/05/15 04:09:41;;;;;;;20.10;6.32;;;;;;;9.08;100.00;102273.97;4986347;28;20038;-79
2022/05/15 04:12:12;;;;;;;15.48;6.10;;;;;;;9.07;100.00;102273.06;4978468;28;20042;-78
2022/05/15 04:14:41;;;;;;;15.00;6.20;;;;;;;9.07;100.00;102280.94;5005980;28;20049;-79
2022/05/15 04:17:09;;;;;;;14.77;6.20;;;;;;;9.10;100.00;102277.53;4997854;28;20050;-79
2022/05/15 04:19:38;;;;;;;20.17;6.80;;;;;;;9.08;100.00;102280.13;4987614;28;20053;-79
2022/05/15 04:22:13;;;;;;;19.70;6.60;;;;;;;9.12;100.00;102278.47;4989621;28;20050;-79
2022/05/15 04:24:41;;;;;;;15.70;5.25;;;;;;;9.14;100.00;102284.69;5002663;28;20043;-80
2022/05/15 04:27:10;;;;;;;15.65;6.35;;;;;;;9.17;100.00;102284.78;4990228;28;20041;-79
2022/05/15 04:29:38;;;;;;;18.88;5.43;;;;;;;9.20;100.00;102284.88;5000722;28;20057;-79
2022/05/15 04:32:07;;;;;;;23.98;6.55;;;;;;;9.23;100.00;102284.97;4987515;28;20247;-78
2022/05/15 04:34:36;;;;;;;21.00;5.88;;;;;;;9.28;100.00;102286.03;4997753;28;20053;-79
2022/05/15 04:37:04;;;;;;;19.85;5.80;;;;;;;9.41;100.00;102289.03;4967412;28;20055;-79
2022/05/15 04:39:34;;;;;;;20.55;6.00;;;;;;;9.80;100.00;102288.44;5007946;28;20057;-79
2022/05/15 04:42:03;;;;;;;15.48;5.90;;;;;;;9.98;100.00;102282.81;4997667;28;20077;-79
2022/05/15 04:44:32;;;;;;;20.70;6.88;;;;;;;10.57;100.00;102280.06;4988319;28;20034;-79
2022/05/15 04:47:00;;;;;;;11.45;4.45;;;;;;;11.31;100.00;102277.50;4989456;28;20034;-79
2022/05/15 04:49:28;;;;;;;18.17;5.35;;;;;;;12.11;100.00;102283.63;4974501;28;20047;-79
2022/05/15 04:51:57;;;;;;;19.08;5.28;;;;;;;12.82;100.00;102281.41;4955590;28;20806;-79
2022/05/15 04:54:25;;;;;;;16.17;4.57;;;;;;;13.51;100.00;102278.06;4983453;28;20054;-78
2022/05/15 04:56:54;;;;;;;12.77;4.70;;;;;;;14.15;100.00;102283.28;4984613;28;20073;-78
2022/05/15 04:59:24;;;;;;;10.68;4.80;;;;;;;14.74;100.00;102275.06;4993133;28;20468;-78
2022/05/15 05:01:53;;;;;;;13.15;4.82;;;;;;;15.24;100.00;102267.50;4974382;28;20049;-78
2022/05/15 05:04:21;;;;;;;14.88;5.05;;;;;;;15.73;100.00;102266.03;5003108;28;20042;-78
2022/05/15 05:06:50;;;;;;;13.05;4.78;;;;;;;16.20;100.00;102272.38;4971235;28;20057;-79
2022/05/15 05:09:19;;;;;;;12.52;4.82;;;;;;;16.66;100.00;102272.44;4982808;28;20066;-79
2022/05/15 05:11:47;;;;;;;15.57;4.75;;;;;;;17.11;100.00;102270.69;5001609;28;20039;-79
2022/05/15 05:14:16;;;;;;;19.45;5.47;;;;;;;17.54;100.00;102261.69;4999850;28;20050;-78
2022/05/15 05:16:45;;;;;;;17.00;5.50;;;;;;;17.90;100.00;102260.72;4992460;28;20043;-78
2022/05/15 05:19:14;;;;;;;18.45;6.18;;;;;;;18.29;100.00;102256.03;4995416;28;20388;-79
2022/05/15 05:21:42;;;;;;;18.10;6.10;;;;;;;18.62;100.00;102261.13;5014913;28;20056;-79
2022/05/15 05:24:10;;;;;;;13.23;5.15;;;;;;;18.94;98.59;102260.00;4979168;28;20053;-79
2022/05/15 05:26:39;;;;;;;15.38;4.95;;;;;;;19.22;96.36;102255.28;4994386;28;20056;-79
2022/05/15 05:29:08;;;;;;;16.50;5.70;;;;;;;19.52;94.91;102262.09;5022101;28;20274;-79
2022/05/15 05:31:36;;;;;;;18.80;5.22;;;;;;;19.77;93.18;102257.38;5010228;28;20034;-79
2022/05/15 05:34:05;;;;;;;18.50;5.43;;;;;;;20.02;91.83;102262.41;4977080;28;20084;-79
2022/05/15 05:36:36;;;;;;;17.38;5.43;;;;;;;20.22;89.56;102257.63;4994048;28;20069;-79
2022/05/15 05:39:04;;;;;;;17.75;4.63;;;;;;;20.52;88.32;102263.44;4985681;28;20225;-79
2022/05/15 05:41:33;;;;;;;16.50;5.10;;;;;;;20.78;85.14;102259.47;5001528;28;20043;-79
2022/05/15 05:44:01;;;;;;;18.15;5.60;;;;;;;20.83;82.76;102260.25;5000349;28;20272;-80
2022/05/15 05:46:30;;;;;;;16.00;4.90;;;;;;;20.92;81.21;102267.28;5018681;28;20060;-79
2022/05/15 05:48:59;;;;;;;18.15;4.88;;;;;;;20.95;79.75;102270.78;5027007;28;20053;-79
2022/05/15 05:51:28;;;;;;;17.00;4.97;;;;;;;21.08;78.80;102274.13;5001469;28;20412;-79
2022/05/15 05:53:57;;;;;;;17.10;5.38;;;;;;;21.18;77.15;102277.53;4970053;28;21470;-79
2022/05/15 05:56:25;;;;;;;13.63;4.88;;;;;;;21.29;75.72;102275.53;5004452;28;20050;-79
2022/05/15 05:58:54;;;;;;;15.85;4.90;;;;;;;21.03;74.50;102279.56;4986003;28;20061;-78
2022/05/15 06:01:22;;;;;;;16.90;5.78;;;;;;;20.56;73.49;102274.97;5010601;28;20528;-78
2022/05/15 06:06:38;;;;;;;17.38;5.50;;;;;;;19.59;74.84;102278.97;5001832;28;20391;-78
2022/05/15 06:09:06;;;;;;;20.95;6.13;;;;;;;19.12;76.19;102283.91;4986328;28;20307;-78
2022/05/15 06:11:35;;;;;;;16.10;5.47;;;;;;;18.75;77.86;102296.66;4961649;28;20045;-78
2022/05/15 06:14:03;;;;;;;16.17;5.93;;;;;;;18.54;79.76;102293.22;4987221;28;20038;-78
2022/05/15 06:16:32;;;;;;;21.23;6.35;;;;;;;18.31;80.79;102285.38;4986717;28;20053;-78
2022/05/15 06:19:01;;;;;;;21.65;5.63;;;;;;;18.14;81.13;102287.28;4986920;28;20216;-77
2022/05/15 06:21:29;;;;;;;19.27;5.25;;;;;;;17.95;81.69;102287.34;4981759;28;20038;-78
2022/05/15 06:23:58;;;;;;;18.85;6.10;;;;;;;17.66;82.57;102288.31;4990511;28;20045;-78
2022/05/15 06:26:26;;;;;;;18.08;5.70;;;;;;;17.48;83.96;102285.72;4991608;28;20488;-78
2022/05/15 06:28:55;;;;;;;16.45;4.80;;;;;;;17.38;84.76;102290.19;4990742;28;20236;-78
2022/05/15 06:31:23;;;;;;;16.48;5.63;;;;;;;17.29;85.20;102284.88;4962796;28;20045;-78
2022/05/15 06:33:52;;;;;;;20.88;5.85;;;;;;;17.17;85.55;102292.91;4993132;28;20039;-78
2022/05/15 06:36:21;;;;;;;22.45;5.82;;;;;;;17.05;86.31;102285.78;4993258;28;20050;-79
2022/05/15 06:38:50;;;;;;;16.52;4.93;;;;;;;16.98;86.28;102289.34;4987274;28;20054;-79
2022/05/15 06:41:20;;;;;;;19.65;5.53;;;;;;;16.62;86.55;102291.97;4998484;28;20046;-78
2022/05/15 06:43:49;;;;;;;19.58;4.75;;;;;;;16.53;87.95;102294.63;4978508;28;20042;-79
2022/05/15 06:46:17;;;;;;;18.30;5.35;;;;;;;16.30;88.30;102289.25;4986895;28;20050;-79
2022/05/15 06:48:46;;;;;;;22.10;6.30;;;;;;;16.28;88.35;102293.69;5002640;28;20050;-79
2022/05/15 06:51:16;;;;;;;20.00;6.03;;;;;;;16.25;90.20;102296.31;4991279;28;20050;-78
2022/05/15 06:53:46;;;;;;;20.33;5.15;;;;;;;16.31;90.15;102291.00;4993833;28;20038;-79
2022/05/15 06:59:06;;;;;;;19.30;5.43;;;;;;;16.44;90.61;102298.13;5016639;28;20037;-79
2022/05/15 07:01:34;;;;;;;16.77;5.68;;;;;;;16.32;89.71;102293.69;4989572;28;20038;-78
2022/05/15 07:04:03;;;;;;;21.25;5.20;;;;;;;16.27;90.54;102292.78;4988082;28;20546;-78
2022/05/15 07:06:32;;;;;;;21.20;5.47;;;;;;;16.32;91.35;102292.81;4963939;28;20054;-79
2022/05/15 07:09:00;;;;;;;15.95;5.07;;;;;;;16.23;91.13;102303.41;4969810;28;20627;-79
2022/05/15 07:11:29;;;;;;;21.55;5.55;;;;;;;16.26;91.47;102303.44;4983401;28;20054;-80
2022/05/15 07:13:58;;;;;;;19.00;5.78;;;;;;;16.25;90.56;102299.88;4969896;28;20050;-79
2022/05/15 07:16:26;;;;;;;17.50;5.60;;;;;;;16.29;91.81;102298.97;5022744;28;20057;-78
2022/05/15 07:18:55;;;;;;;19.23;5.38;;;;;;;16.38;91.92;102309.66;4993576;28;20749;-78
2022/05/15 07:21:23;;;;;;;17.90;4.82;;;;;;;16.48;92.14;102307.94;4965483;28;20419;-78
2022/05/15 07:23:52;;;;;;;16.23;5.38;;;;;;;16.56;91.82;102308.81;5003773;28;20053;-79
2022/05/15 07:26:20;;;;;;;19.88;5.75;;;;;;;16.61;91.28;102300.81;5008583;28;20042;-78
2022/05/15 07:28:51;;;;;;;19.17;5.05;;;;;;;16.70;91.33;102310.59;4948634;28;20704;-78
2022/05/15 07:31:20;;;;;;;15.48;4.72;;;;;;;16.76;91.78;102298.16;5000931;28;20061;-78
2022/05/15 07:33:51;;;;;;;19.00;5.50;;;;;;;16.86;91.39;102284.91;4990792;28;20419;-78
2022/05/15 07:36:20;;;;;;;26.45;5.97;;;;;;;16.94;91.30;102288.47;5004794;28;20065;-78
2022/05/15 07:38:52;;;;;;;18.57;5.80;;;;;;;17.00;90.46;102295.56;4999314;28;20482;-78
2022/05/15 07:41:21;;;;;;;19.50;6.13;;;;;;;16.99;90.14;102292.00;4987327;28;20050;-79
2022/05/15 07:43:49;;;;;;;20.02;5.65;;;;;;;16.85;89.07;102286.69;4990797;28;20030;-79
2022/05/15 07:46:18;;;;;;;15.82;5.03;;;;;;;16.77;89.85;102283.13;5003052;28;20042;-79
2022/05/15 07:48:46;;;;;;;18.27;4.97;;;;;;;16.74;89.30;102294.63;4954279;28;20057;-80
2022/05/15 07:51:15;;;;;;;16.58;4.72;;;;;;;16.76;88.62;102283.97;4994733;28;20057;-80
2022/05/15 07:53:43;;;;;;;17.02;4.20;;;;;;;16.79;88.63;102283.13;4990082;28;20049;-79
2022/05/15 07:56:13;;;;;;;9.77;2.70;;;;;;;16.66;84.38;102283.09;4995643;28;20038;-79
2022/05/15 07:58:43;;;;;;;8.88;3.17;;;;;;;16.68;83.62;102285.75;5010787;28;20045;-79
2022/05/15 08:01:11;;;;;;;13.82;3.63;;;;;;;16.71;83.32;102291.97;4984576;28;20046;-79
2022/05/15 08:03:43;;;;;;;14.20;3.30;;;;;;;16.69;83.08;102293.75;4961232;28;20172;-80
2022/05/15 08:09:04;;;;;;;10.43;3.53;;;;;;;16.83;82.70;102283.13;4996321;28;20055;-80
2022/05/15 08:11:33;;;;;;;15.93;4.45;;;;;;;16.91;82.41;102285.78;4990036;28;20052;-81
2022/05/15 08:14:04;;;;;;;14.40;4.72;;;;;;;16.77;82.16;102288.44;5002182;28;20381;-80
2022/05/15 08:16:37;;;;;;;9.25;3.60;;;;;;;16.82;83.80;102280.44;4980753;28;20264;-80
2022/05/15 08:24:43;;;;;;;15.35;4.88;;;;;;;16.91;85.18;102278.69;4999501;28;20070;-80
2022/05/15 08:27:11;;;;;;;16.02;4.10;;;;;;;16.98;85.12;102284.91;4968711;28;20045;-80
2022/05/15 08:29:40;;;;;;;18.17;5.15;;;;;;;17.00;85.11;102283.13;5003164;28;20046;-80
2022/05/15 08:32:09;;;;;;;13.40;4.18;;;;;;;16.98;84.47;102274.25;4980573;28;20041;-81
2022/05/15 08:34:45;;;;;;;12.20;4.32;;;;;;;17.00;85.55;102271.59;4991449;28;20045;-79
2022/05/15 08:37:14;;;;;;;17.08;4.88;;;;;;;17.05;85.32;102281.38;4996583;28;20053;-80
2022/05/15 08:39:42;;;;;;;12.30;3.45;;;;;;;17.08;85.66;102276.00;4986319;28;20491;-80
2022/05/15 08:42:31;;;;;;;14.60;4.45;;;;;;;17.14;85.10;102285.78;4997329;28;20502;-80
2022/05/15 08:45:38;;;;;;;16.45;4.18;;;;;;;17.18;86.01;102274.22;4994841;28;20042;-82
2022/05/15 08:48:12;;;;;;;13.73;4.28;;;;;;;17.17;85.00;102275.13;4969170;28;20050;-79
2022/05/15 08:50:54;;;;;;;17.10;4.30;;;;;;;17.15;85.05;102272.47;5002166;28;20078;-82
2022/05/15 08:53:31;;;;;;;10.07;3.78;;;;;;;17.19;85.11;102268.03;4988731;28;20089;-81
2022/05/15 08:56:07;;;;;;;10.40;4.07;;;;;;;17.26;85.36;102267.13;4993184;28;20061;-81
2022/05/15 08:58:55;;;;;;;13.95;4.15;;;;;;;17.42;85.30;102265.28;5003712;28;20049;-81
2022/05/15 09:01:29;;;;;;;11.50;4.03;;;;;;;17.55;84.64;102271.47;4986955;28;20049;-81
2022/05/15 09:03:58;;;;;;;18.45;4.35;;;;;;;17.49;83.48;102269.72;5004794;28;20061;-81
2022/05/15 09:06:50;;;;;;;11.32;3.88;;;;;;;17.54;83.74;102275.94;4991534;28;20043;-81
2022/05/15 09:09:56;;;;;;;4.85;2.78;;;;;;;17.63;81.70;102269.66;4994530;28;20159;-80
2022/05/15 09:12:26;;;;;;;10.70;3.13;;;;;;;17.66;80.20;102268.78;4996809;28;20077;-80
2022/05/15 09:15:04;;;;;;;8.27;2.80;;;;;;;17.73;80.31;102263.44;4982303;28;20061;-81
2022/05/15 09:17:46;;;;;;;5.50;2.60;;;;;;;17.85;79.14;102281.19;4987146;28;20482;-80
2022/05/15 09:20:28;;;;;;;4.95;1.55;;;;;;;17.92;74.58;102280.25;4971081;28;20076;-81
2022/05/15 09:23:02;;;;;;;;;;;;;;;17.95;65.89;102284.69;5000438;28;20076;-81
2022/05/15 09:25:34;;;;;;;2.10;1.20;;;;;;;17.96;69.95;102289.16;4992117;28;19930;-81
2022/05/15 09:28:07;;;;;;;2.72;1.73;;;;;;;18.03;69.94;102281.97;4996696;28;20043;-81
2022/05/15 09:30:46;;;;;;;3.17;1.13;;;;;;;18.10;66.41;102281.06;5004449;28;20395;-80
2022/05/15 09:33:46;;;;;;;4.00;1.50;;;;;;;18.19;66.67;102283.69;4975133;28;20191;-82
2022/05/15 09:36:26;;;;;;;2.93;0.90;;;;;;;18.27;65.65;102267.63;5009211;28;20385;-83
2022/05/15 09:39:08;;;;;;;1.98;1.10;;;;;;;18.29;63.04;102277.38;4966375;28;20158;-82
2022/05/15 09:44:35;;;;;;;1.33;1.10;;;;;;;18.09;59.92;102265.94;4961677;28;20190;-81
2022/05/15 09:47:29;;;;;;;2.05;1.10;;;;;;;18.16;61.56;102261.47;4978383;28;20395;-79
2022/05/15 09:49:59;;;;;;;2.33;1.25;;;;;;;18.29;62.54;102257.81;4986715;28;20057;-80
2022/05/15 09:52:39;;;;;;;3.08;0.95;;;;;;;18.45;63.32;102255.91;4983582;28;20460;-80
2022/05/15 09:55:22;;;;;;;2.78;1.10;;;;;;;18.49;61.29;102252.38;4992881;28;20395;-80
2022/05/15 09:58:19;;;;;;;3.67;0.80;;;;;;;18.56;59.01;102259.41;4988111;28;20042;-80
2022/05/15 10:00:48;;;;;;;2.15;0.80;;;;;;;18.70;59.76;102251.31;4998736;28;20046;-81
2022/05/15 10:03:26;;;;;;;1.27;0.80;;;;;;;18.86;59.33;102257.41;4997515;28;20575;-79
2022/05/15 10:06:03;;;;;;;1.95;1.10;;;;;;;18.98;57.92;102251.97;4981836;28;20064;-79
2022/05/15 10:08:32;;;;;;;2.25;1.13;;;;;;;19.07;59.01;102250.97;4995723;28;20054;-80
2022/05/15 10:11:11;;;;;;;1.70;1.00;;;;;;;19.24;58.84;102253.47;5000774;28;20049;-79
2022/05/15 10:13:52;;;;;;;1.80;1.10;;;;;;;19.45;59.22;102252.34;4990827;28;20060;-79
2022/05/15 10:16:25;;;;;;;3.58;1.80;;;;;;;19.66;58.68;102254.78;4989222;28;20058;-80
2022/05/15 10:19:12;;;;;;;5.18;1.60;;;;;;;19.81;56.84;102259.09;5017331;28;20045;-80
2022/05/15 10:21:45;;;;;;;5.25;1.73;;;;;;;19.88;56.92;102251.88;4993718;28;20049;-80
2022/05/15 10:24:25;;;;;;;5.57;1.85;;;;;;;19.92;56.16;102247.34;5014677;28;20041;-79
2022/05/15 10:27:12;;;;;;;4.18;1.75;;;;;;;19.96;57.00;102241.06;4984183;28;20431;-81
2022/05/15 10:29:45;;;;;;;3.80;1.95;;;;;;;20.01;59.70;102239.22;5004802;28;20038;-81
2022/05/15 10:32:20;;;;;;;2.97;1.65;;;;;;;19.97;58.97;102242.84;4983129;28;20042;-80
2022/05/15 10:34:48;;;;;;;5.50;2.03;;;;;;;19.81;59.87;102235.03;5009900;28;20034;-81
2022/05/15 10:37:45;;;;;;;6.70;2.35;;;;;;;19.69;63.32;102235.13;4991054;28;20054;-80
2022/05/15 10:40:16;;;;;;;7.05;2.53;;;;;;;19.69;65.34;102240.50;5010770;28;20502;-80
2022/05/15 10:43:19;;;;;;;6.82;2.63;;;;;;;19.74;64.67;102235.13;4986232;28;20498;-79
2022/05/15 10:46:22;;;;;;;8.95;2.80;;;;;;;19.77;65.27;102237.75;5000436;28;20049;-79
2022/05/15 10:49:03;;;;;;;8.13;2.72;;;;;;;19.78;66.79;102235.06;5004536;28;20042;-81
2022/05/15 10:51:45;;;;;;;5.35;2.40;;;;;;;19.65;62.55;102228.94;4982497;28;20061;-80
2022/05/15 10:57:46;;;;;;;6.35;2.17;;;;;;;19.55;62.96;102218.41;5003818;28;20057;-80
2022/05/15 11:00:26;;;;;;;10.05;2.85;;;;;;;19.59;65.08;102212.09;4983051;28;20038;-80
2022/05/15 11:03:24;;;;;;;8.75;2.80;;;;;;;19.70;66.49;102207.50;4995129;28;20046;-80
2022/05/15 11:06:11;;;;;;;7.88;2.70;;;;;;;19.73;66.67;102199.47;4989855;28;20136;-78
2022/05/15 11:09:03;;;;;;;10.45;3.60;;;;;;;19.62;66.82;102196.00;4974160;28;20054;-79
2022/05/15 11:12:12;;;;;;;8.95;2.80;;;;;;;19.61;68.54;102203.16;4996234;28;20254;-80
2022/05/15 11:15:16;;;;;;;7.63;2.83;;;;;;;19.65;68.58;102194.19;5010840;28;20054;-79
2022/05/15 11:18:05;;;;;;;15.32;3.95;;;;;;;19.60;70.30;102201.41;4997588;28;20642;-81
2022/05/15 11:20:45;;;;;;;11.13;3.53;;;;;;;19.59;70.90;102196.06;4993430;28;20551;-81
2022/05/15 11:23:20;;;;;;;15.53;3.83;;;;;;;19.72;71.15;102187.00;5009857;28;20414;-81
2022/05/15 11:26:00;;;;;;;10.55;3.08;;;;;;;19.85;69.59;102193.09;4982945;28;20445;-81
2022/05/15 11:28:48;;;;;;;16.88;4.43;;;;;;;19.97;71.68;102181.31;5018607;28;20049;-82
2022/05/15 11:31:38;;;;;;;12.30;3.35;;;;;;;19.99;71.78;102184.84;5025730;28;20053;-81
2022/05/15 11:34:08;;;;;;;11.30;4.10;;;;;;;19.98;71.38;102183.97;4995068;28;20046;-82
2022/05/15 11:36:43;;;;;;;14.18;3.88;;;;;;;20.00;72.50;102168.78;5013218;28;20085;-81
2022/05/15 11:39:15;;;;;;;13.23;3.70;;;;;;;20.06;72.19;102167.78;4993472;28;20057;-79
2022/05/15 11:41:43;;;;;;;10.23;3.50;;;;;;;20.04;71.44;102174.97;4992661;28;20051;-80
2022/05/15 11:44:32;;;;;;;13.30;3.95;;;;;;;20.07;71.85;102169.53;4992488;28;20061;-80
2022/05/15 11:47:14;;;;;;;10.45;3.50;;;;;;;19.89;71.41;102167.19;4992405;28;20034;-82
2022/05/15 11:50:01;;;;;;;16.10;3.55;;;;;;;19.82;72.39;102171.72;4972215;28;20065;-80
2022/05/15 11:53:10;;;;;;;16.25;3.92;;;;;;;19.86;73.81;102174.31;5002770;28;20277;-81
2022/05/15 11:55:46;;;;;;;17.80;3.85;;;;;;;19.92;73.19;102175.13;4979313;28;20073;-81
2022/05/15 11:58:36;;;;;;;43.50;4.95;;;;;;;20.02;74.86;102174.09;4986897;28;20042;-80
2022/05/15 12:01:25;;;;;;;19.75;4.43;;;;;;;20.15;74.54;102164.97;4967604;28;20043;-79
2022/05/15 12:04:01;;;;;;;18.65;4.68;;;;;;;20.19;75.68;102156.00;4972980;28;20538;-79
2022/05/15 12:06:57;;;;;;;14.43;4.32;;;;;;;20.18;76.72;102151.53;5006030;28;20045;-80